sensor_id;sensor_type;location;lat;lon;timestamp;P1;durP1;ratioP1;P2;durP2;ratioP2
59830;SDS011;45711;50.108;13.712;2022-12-31T00:01:13;2.85;;;1.50;;
59830;SDS011;45711;50.108;13.712;2022-12-31T00:03:40;3.13;;;1.50;;
59830;SDS011;45711;50.108;13.712;2022-12-31T00:06:14;2.63;;;1.60;;
59830;SDS011;45711;50.108;13.712;2022-12-31T00:08:41;3.17;;;1.95;;
59830;SDS011;45711;50.108;13.712;2022-12-31T00:11:07;2.30;;;1.40;;
59830;SDS011;45711;50.108;13.712;2022-12-31T00:13:37;2.58;;;1.40;;
59830;SDS011;45711;50.108;13.712;2022-12-31T00:16:07;1.60;;;1.40;;
59830;SDS011;45711;50.108;13.712;2022-12-31T00:18:34;3.55;;;1.48;;
59830;SDS011;45711;50.108;13.712;2022-12-31T00:21:04;2.38;;;1.52;;
59830;SDS011;45711;50.108;13.712;2022-12-31T00:23:31;2.53;;;1.60;;
59830;SDS011;45711;50.108;13.712;2022-12-31T00:26:00;3.40;;;1.55;;
59830;SDS011;45711;50.108;13.712;2022-12-31T00:28:27;2.15;;;1.50;;
59830;SDS011;45711;50.108;13.712;2022-12-31T00:30:54;2.67;;;1.80;;
59830;SDS011;45711;50.108;13.712;2022-12-31T00:33:19;5.53;;;1.60;;
59830;SDS011;45711;50.108;13.712;2022-12-31T00:35:45;3.97;;;1.67;;
59830;SDS011;45711;50.108;13.712;2022-12-31T00:38:11;2.60;;;1.60;;
59830;SDS011;45711;50.108;13.712;2022-12-31T00:40:36;2.30;;;1.52;;
59830;SDS011;45711;50.108;13.712;2022-12-31T00:43:02;2.60;;;1.83;;
59830;SDS011;45711;50.108;13.712;2022-12-31T00:45:27;1.98;;;1.30;;
59830;SDS011;45711;50.108;13.712;2022-12-31T00:47:54;2.55;;;1.63;;
59830;SDS011;45711;50.108;13.712;2022-12-31T00:50:20;3.55;;;1.40;;
59830;SDS011;45711;50.108;13.712;2022-12-31T00:52:45;2.35;;;1.25;;
59830;SDS011;45711;50.108;13.712;2022-12-31T00:55:11;2.15;;;1.55;;
59830;SDS011;45711;50.108;13.712;2022-12-31T00:57:36;3.20;;;1.98;;
59830;SDS011;45711;50.108;13.712;2022-12-31T01:00:02;2.17;;;1.63;;
59830;SDS011;45711;50.108;13.712;2022-12-31T01:02:30;2.83;;;1.98;;
59830;SDS011;45711;50.108;13.712;2022-12-31T01:04:59;2.35;;;1.70;;
59830;SDS011;45711;50.108;13.712;2022-12-31T01:07:26;3.17;;;1.70;;
59830;SDS011;45711;50.108;13.712;2022-12-31T01:09:52;2.55;;;1.90;;
59830;SDS011;45711;50.108;13.712;2022-12-31T01:12:25;3.80;;;1.90;;
59830;SDS011;45711;50.108;13.712;2022-12-31T01:14:53;2.97;;;1.98;;
59830;SDS011;45711;50.108;13.712;2022-12-31T01:17:22;2.83;;;1.70;;
59830;SDS011;45711;50.108;13.712;2022-12-31T01:19:52;2.85;;;1.88;;
59830;SDS011;45711;50.108;13.712;2022-12-31T01:22:24;2.35;;;2.00;;
59830;SDS011;45711;50.108;13.712;2022-12-31T01:24:49;1.80;;;1.40;;
59830;SDS011;45711;50.108;13.712;2022-12-31T01:27:15;2.28;;;1.55;;
59830;SDS011;45711;50.108;13.712;2022-12-31T01:29:40;2.55;;;1.80;;
59830;SDS011;45711;50.108;13.712;2022-12-31T01:32:06;3.78;;;2.22;;
59830;SDS011;45711;50.108;13.712;2022-12-31T01:34:31;3.90;;;2.17;;
59830;SDS011;45711;50.108;13.712;2022-12-31T01:36:57;5.28;;;2.13;;
59830;SDS011;45711;50.108;13.712;2022-12-31T01:39:24;3.20;;;2.20;;
59830;SDS011;45711;50.108;13.712;2022-12-31T01:41:50;3.95;;;2.03;;
59830;SDS011;45711;50.108;13.712;2022-12-31T01:47:13;3.28;;;2.20;;
59830;SDS011;45711;50.108;13.712;2022-12-31T01:49:42;3.65;;;2.10;;
59830;SDS011;45711;50.108;13.712;2022-12-31T01:52:13;3.03;;;2.28;;
59830;SDS011;45711;50.108;13.712;2022-12-31T01:54:46;3.60;;;1.90;;
59830;SDS011;45711;50.108;13.712;2022-12-31T01:57:13;4.35;;;2.50;;
59830;SDS011;45711;50.108;13.712;2022-12-31T01:59:43;4.30;;;3.00;;
59830;SDS011;45711;50.108;13.712;2022-12-31T02:02:09;3.88;;;2.58;;
59830;SDS011;45711;50.108;13.712;2022-12-31T02:04:36;3.15;;;2.30;;
59830;SDS011;45711;50.108;13.712;2022-12-31T02:07:02;2.72;;;2.20;;
59830;SDS011;45711;50.108;13.712;2022-12-31T02:09:31;2.85;;;1.95;;
59830;SDS011;45711;50.108;13.712;2022-12-31T02:11:59;3.92;;;2.35;;
59830;SDS011;45711;50.108;13.712;2022-12-31T02:14:26;4.45;;;2.78;;
59830;SDS011;45711;50.108;13.712;2022-12-31T02:16:55;3.95;;;2.67;;
59830;SDS011;45711;50.108;13.712;2022-12-31T02:19:41;5.10;;;3.30;;
59830;SDS011;45711;50.108;13.712;2022-12-31T02:22:31;4.40;;;3.50;;
59830;SDS011;45711;50.108;13.712;2022-12-31T02:25:23;4.07;;;2.60;;
59830;SDS011;45711;50.108;13.712;2022-12-31T02:28:11;4.55;;;2.78;;
59830;SDS011;45711;50.108;13.712;2022-12-31T02:30:51;4.05;;;2.78;;
59830;SDS011;45711;50.108;13.712;2022-12-31T02:33:26;3.78;;;2.72;;
59830;SDS011;45711;50.108;13.712;2022-12-31T02:35:56;3.53;;;2.72;;
59830;SDS011;45711;50.108;13.712;2022-12-31T02:38:25;3.55;;;2.60;;
59830;SDS011;45711;50.108;13.712;2022-12-31T02:40:57;3.33;;;2.35;;
59830;SDS011;45711;50.108;13.712;2022-12-31T02:43:26;4.03;;;2.63;;
59830;SDS011;45711;50.108;13.712;2022-12-31T02:45:56;4.03;;;3.05;;
59830;SDS011;45711;50.108;13.712;2022-12-31T02:48:38;3.53;;;2.65;;
59830;SDS011;45711;50.108;13.712;2022-12-31T02:51:17;2.58;;;2.22;;
59830;SDS011;45711;50.108;13.712;2022-12-31T02:54:01;5.35;;;2.40;;
59830;SDS011;45711;50.108;13.712;2022-12-31T02:56:47;7.25;;;2.80;;
59830;SDS011;45711;50.108;13.712;2022-12-31T02:59:20;5.32;;;2.50;;
59830;SDS011;45711;50.108;13.712;2022-12-31T03:02:09;3.08;;;2.47;;
59830;SDS011;45711;50.108;13.712;2022-12-31T03:04:39;4.40;;;2.88;;
59830;SDS011;45711;50.108;13.712;2022-12-31T03:07:08;3.65;;;2.78;;
59830;SDS011;45711;50.108;13.712;2022-12-31T03:09:35;3.42;;;2.30;;
59830;SDS011;45711;50.108;13.712;2022-12-31T03:12:01;4.70;;;2.47;;
59830;SDS011;45711;50.108;13.712;2022-12-31T03:14:47;2.97;;;2.20;;
59830;SDS011;45711;50.108;13.712;2022-12-31T03:17:18;3.42;;;2.75;;
59830;SDS011;45711;50.108;13.712;2022-12-31T03:19:44;3.88;;;2.30;;
59830;SDS011;45711;50.108;13.712;2022-12-31T03:22:28;4.18;;;2.67;;
59830;SDS011;45711;50.108;13.712;2022-12-31T03:24:55;3.72;;;2.50;;
59830;SDS011;45711;50.108;13.712;2022-12-31T03:27:42;4.38;;;2.63;;
59830;SDS011;45711;50.108;13.712;2022-12-31T03:30:08;3.58;;;1.80;;
59830;SDS011;45711;50.108;13.712;2022-12-31T03:32:36;4.35;;;2.30;;
59830;SDS011;45711;50.108;13.712;2022-12-31T03:35:02;3.08;;;2.10;;
59830;SDS011;45711;50.108;13.712;2022-12-31T03:37:28;2.85;;;2.00;;
59830;SDS011;45711;50.108;13.712;2022-12-31T03:39:53;3.25;;;2.10;;
59830;SDS011;45711;50.108;13.712;2022-12-31T03:42:19;3.20;;;1.98;;
59830;SDS011;45711;50.108;13.712;2022-12-31T03:44:44;2.60;;;2.08;;
59830;SDS011;45711;50.108;13.712;2022-12-31T03:47:13;4.28;;;2.03;;
59830;SDS011;45711;50.108;13.712;2022-12-31T03:49:39;7.40;;;2.45;;
59830;SDS011;45711;50.108;13.712;2022-12-31T03:52:05;3.42;;;2.00;;
59830;SDS011;45711;50.108;13.712;2022-12-31T03:54:32;3.58;;;2.40;;
59830;SDS011;45711;50.108;13.712;2022-12-31T03:56:58;2.15;;;1.80;;
59830;SDS011;45711;50.108;13.712;2022-12-31T03:59:24;2.85;;;2.13;;
59830;SDS011;45711;50.108;13.712;2022-12-31T04:01:52;3.85;;;2.50;;
59830;SDS011;45711;50.108;13.712;2022-12-31T04:04:21;3.15;;;2.20;;
59830;SDS011;45711;50.108;13.712;2022-12-31T04:06:51;4.78;;;2.20;;
59830;SDS011;45711;50.108;13.712;2022-12-31T04:09:18;3.03;;;2.15;;
59830;SDS011;45711;50.108;13.712;2022-12-31T04:11:44;3.65;;;2.70;;
59830;SDS011;45711;50.108;13.712;2022-12-31T04:14:09;4.20;;;2.60;;
59830;SDS011;45711;50.108;13.712;2022-12-31T04:16:35;2.42;;;1.80;;
59830;SDS011;45711;50.108;13.712;2022-12-31T04:19:01;2.67;;;1.70;;
59830;SDS011;45711;50.108;13.712;2022-12-31T04:21:29;5.57;;;2.10;;
59830;SDS011;45711;50.108;13.712;2022-12-31T04:24:02;2.97;;;1.95;;
59830;SDS011;45711;50.108;13.712;2022-12-31T04:26:37;3.08;;;2.47;;
59830;SDS011;45711;50.108;13.712;2022-12-31T04:29:05;3.38;;;2.08;;
59830;SDS011;45711;50.108;13.712;2022-12-31T04:31:31;3.55;;;2.28;;
59830;SDS011;45711;50.108;13.712;2022-12-31T04:33:56;3.22;;;2.38;;
59830;SDS011;45711;50.108;13.712;2022-12-31T04:36:22;4.03;;;1.90;;
59830;SDS011;45711;50.108;13.712;2022-12-31T04:38:48;2.42;;;2.20;;
59830;SDS011;45711;50.108;13.712;2022-12-31T04:41:14;3.45;;;2.42;;
59830;SDS011;45711;50.108;13.712;2022-12-31T04:43:44;3.30;;;2.22;;
59830;SDS011;45711;50.108;13.712;2022-12-31T04:46:11;1.88;;;1.60;;
59830;SDS011;45711;50.108;13.712;2022-12-31T04:48:40;2.72;;;1.73;;
59830;SDS011;45711;50.108;13.712;2022-12-31T04:51:06;3.45;;;2.00;;
59830;SDS011;45711;50.108;13.712;2022-12-31T04:53:31;4.93;;;2.40;;
59830;SDS011;45711;50.108;13.712;2022-12-31T04:55:57;2.97;;;1.92;;
59830;SDS011;45711;50.108;13.712;2022-12-31T04:58:24;6.80;;;1.92;;
59830;SDS011;45711;50.108;13.712;2022-12-31T05:00:50;2.92;;;2.45;;
59830;SDS011;45711;50.108;13.712;2022-12-31T05:03:18;3.58;;;2.00;;
59830;SDS011;45711;50.108;13.712;2022-12-31T05:05:46;2.75;;;2.10;;
59830;SDS011;45711;50.108;13.712;2022-12-31T05:08:14;3.15;;;1.70;;
59830;SDS011;45711;50.108;13.712;2022-12-31T05:10:41;2.58;;;2.20;;
59830;SDS011;45711;50.108;13.712;2022-12-31T05:13:10;3.80;;;2.10;;
59830;SDS011;45711;50.108;13.712;2022-12-31T05:15:39;6.13;;;2.20;;
59830;SDS011;45711;50.108;13.712;2022-12-31T05:18:05;4.03;;;2.00;;
59830;SDS011;45711;50.108;13.712;2022-12-31T05:20:32;2.83;;;1.90;;
59830;SDS011;45711;50.108;13.712;2022-12-31T05:22:57;2.55;;;1.58;;
59830;SDS011;45711;50.108;13.712;2022-12-31T05:25:23;1.58;;;1.15;;
59830;SDS011;45711;50.108;13.712;2022-12-31T05:27:51;2.25;;;1.48;;
59830;SDS011;45711;50.108;13.712;2022-12-31T05:30:25;3.40;;;1.60;;
59830;SDS011;45711;50.108;13.712;2022-12-31T05:32:52;3.47;;;1.80;;
59830;SDS011;45711;50.108;13.712;2022-12-31T05:35:18;3.47;;;2.05;;
59830;SDS011;45711;50.108;13.712;2022-12-31T05:37:43;2.38;;;1.48;;
59830;SDS011;45711;50.108;13.712;2022-12-31T05:40:12;2.13;;;1.55;;
59830;SDS011;45711;50.108;13.712;2022-12-31T05:42:37;3.40;;;1.50;;
59830;SDS011;45711;50.108;13.712;2022-12-31T05:45:03;5.10;;;1.63;;
59830;SDS011;45711;50.108;13.712;2022-12-31T05:47:30;2.40;;;1.40;;
59830;SDS011;45711;50.108;13.712;2022-12-31T05:49:57;2.50;;;1.65;;
59830;SDS011;45711;50.108;13.712;2022-12-31T05:52:23;1.50;;;1.40;;
59830;SDS011;45711;50.108;13.712;2022-12-31T05:54:48;1.70;;;1.40;;
59830;SDS011;45711;50.108;13.712;2022-12-31T05:57:16;1.63;;;1.40;;
59830;SDS011;45711;50.108;13.712;2022-12-31T05:59:42;3.20;;;1.58;;
59830;SDS011;45711;50.108;13.712;2022-12-31T06:02:07;2.22;;;1.40;;
59830;SDS011;45711;50.108;13.712;2022-12-31T06:04:33;1.73;;;1.40;;
59830;SDS011;45711;50.108;13.712;2022-12-31T06:07:00;1.60;;;1.35;;
59830;SDS011;45711;50.108;13.712;2022-12-31T06:09:25;2.03;;;1.25;;
59830;SDS011;45711;50.108;13.712;2022-12-31T06:11:51;4.28;;;1.52;;
59830;SDS011;45711;50.108;13.712;2022-12-31T06:14:16;2.00;;;1.40;;
59830;SDS011;45711;50.108;13.712;2022-12-31T06:16:42;1.98;;;1.30;;
59830;SDS011;45711;50.108;13.712;2022-12-31T06:19:08;1.13;;;1.02;;
59830;SDS011;45711;50.108;13.712;2022-12-31T06:21:33;2.22;;;1.55;;
59830;SDS011;45711;50.108;13.712;2022-12-31T06:24:00;2.22;;;1.38;;
59830;SDS011;45711;50.108;13.712;2022-12-31T06:26:26;4.22;;;1.38;;
59830;SDS011;45711;50.108;13.712;2022-12-31T06:28:52;1.98;;;1.00;;
59830;SDS011;45711;50.108;13.712;2022-12-31T06:31:17;2.78;;;1.50;;
59830;SDS011;45711;50.108;13.712;2022-12-31T06:33:43;2.03;;;1.50;;
59830;SDS011;45711;50.108;13.712;2022-12-31T06:36:12;2.75;;;1.15;;
59830;SDS011;45711;50.108;13.712;2022-12-31T06:38:39;1.23;;;0.98;;
59830;SDS011;45711;50.108;13.712;2022-12-31T06:41:07;1.60;;;1.20;;
59830;SDS011;45711;50.108;13.712;2022-12-31T06:43:35;1.15;;;1.00;;
59830;SDS011;45711;50.108;13.712;2022-12-31T06:46:01;1.83;;;1.30;;
59830;SDS011;45711;50.108;13.712;2022-12-31T06:48:27;1.50;;;1.20;;
59830;SDS011;45711;50.108;13.712;2022-12-31T06:50:53;2.08;;;1.17;;
59830;SDS011;45711;50.108;13.712;2022-12-31T06:53:18;2.17;;;1.10;;
59830;SDS011;45711;50.108;13.712;2022-12-31T06:55:44;1.95;;;0.98;;
59830;SDS011;45711;50.108;13.712;2022-12-31T06:58:13;2.13;;;1.10;;
59830;SDS011;45711;50.108;13.712;2022-12-31T07:00:40;2.88;;;1.00;;
59830;SDS011;45711;50.108;13.712;2022-12-31T07:03:17;1.33;;;1.05;;
59830;SDS011;45711;50.108;13.712;2022-12-31T07:05:52;2.42;;;1.20;;
59830;SDS011;45711;50.108;13.712;2022-12-31T07:08:30;1.65;;;1.08;;
59830;SDS011;45711;50.108;13.712;2022-12-31T07:11:05;3.03;;;1.10;;
59830;SDS011;45711;50.108;13.712;2022-12-31T07:13:48;2.65;;;1.33;;
59830;SDS011;45711;50.108;13.712;2022-12-31T07:16:33;1.70;;;1.10;;
59830;SDS011;45711;50.108;13.712;2022-12-31T07:19:06;3.03;;;1.70;;
59830;SDS011;45711;50.108;13.712;2022-12-31T07:21:41;1.35;;;1.20;;
59830;SDS011;45711;50.108;13.712;2022-12-31T07:24:08;2.67;;;0.93;;
59830;SDS011;45711;50.108;13.712;2022-12-31T07:26:47;1.00;;;0.90;;
59830;SDS011;45711;50.108;13.712;2022-12-31T07:29:27;3.05;;;1.30;;
59830;SDS011;45711;50.108;13.712;2022-12-31T07:32:05;2.20;;;1.27;;
59830;SDS011;45711;50.108;13.712;2022-12-31T07:34:40;1.63;;;1.35;;
59830;SDS011;45711;50.108;13.712;2022-12-31T07:37:16;1.23;;;0.90;;
59830;SDS011;45711;50.108;13.712;2022-12-31T07:39:55;2.33;;;1.60;;
59830;SDS011;45711;50.108;13.712;2022-12-31T07:42:27;1.40;;;1.20;;
59830;SDS011;45711;50.108;13.712;2022-12-31T07:45:06;1.20;;;1.10;;
59830;SDS011;45711;50.108;13.712;2022-12-31T07:47:41;2.28;;;1.20;;
59830;SDS011;45711;50.108;13.712;2022-12-31T07:50:11;1.63;;;1.05;;
59830;SDS011;45711;50.108;13.712;2022-12-31T07:52:40;1.63;;;1.30;;
59830;SDS011;45711;50.108;13.712;2022-12-31T07:55:06;1.05;;;0.90;;
59830;SDS011;45711;50.108;13.712;2022-12-31T07:57:33;3.28;;;1.40;;
59830;SDS011;45711;50.108;13.712;2022-12-31T08:00:09;2.30;;;1.38;;
59830;SDS011;45711;50.108;13.712;2022-12-31T08:02:45;2.00;;;1.52;;
59830;SDS011;45711;50.108;13.712;2022-12-31T08:05:30;1.63;;;1.13;;
59830;SDS011;45711;50.108;13.712;2022-12-31T08:08:04;1.25;;;1.00;;
59830;SDS011;45711;50.108;13.712;2022-12-31T08:10:42;1.50;;;1.30;;
59830;SDS011;45711;50.108;13.712;2022-12-31T08:13:18;2.90;;;0.93;;
59830;SDS011;45711;50.108;13.712;2022-12-31T08:15:50;2.13;;;1.05;;
59830;SDS011;45711;50.108;13.712;2022-12-31T08:18:16;2.42;;;1.40;;
59830;SDS011;45711;50.108;13.712;2022-12-31T08:20:43;1.17;;;0.98;;
59830;SDS011;45711;50.108;13.712;2022-12-31T08:23:20;1.35;;;1.00;;
59830;SDS011;45711;50.108;13.712;2022-12-31T08:25:56;1.70;;;0.98;;
59830;SDS011;45711;50.108;13.712;2022-12-31T08:28:35;3.25;;;1.10;;
59830;SDS011;45711;50.108;13.712;2022-12-31T08:31:18;4.43;;;1.13;;
59830;SDS011;45711;50.108;13.712;2022-12-31T08:33:49;1.08;;;0.90;;
59830;SDS011;45711;50.108;13.712;2022-12-31T08:36:22;2.25;;;1.10;;
59830;SDS011;45711;50.108;13.712;2022-12-31T08:38:55;1.37;;;0.90;;
59830;SDS011;45711;50.108;13.712;2022-12-31T08:41:27;1.45;;;0.82;;
59830;SDS011;45711;50.108;13.712;2022-12-31T08:43:59;1.08;;;0.82;;
59830;SDS011;45711;50.108;13.712;2022-12-31T08:46:36;2.35;;;1.02;;
59830;SDS011;45711;50.108;13.712;2022-12-31T08:49:09;2.15;;;1.13;;
59830;SDS011;45711;50.108;13.712;2022-12-31T08:51:35;2.10;;;1.30;;
59830;SDS011;45711;50.108;13.712;2022-12-31T08:54:02;1.10;;;0.90;;
59830;SDS011;45711;50.108;13.712;2022-12-31T08:56:28;4.82;;;0.93;;
59830;SDS011;45711;50.108;13.712;2022-12-31T08:59:00;1.67;;;1.00;;
59830;SDS011;45711;50.108;13.712;2022-12-31T09:01:34;1.40;;;0.98;;
59830;SDS011;45711;50.108;13.712;2022-12-31T09:04:21;0.82;;;0.77;;
59830;SDS011;45711;50.108;13.712;2022-12-31T09:07:09;1.50;;;0.93;;
59830;SDS011;45711;50.108;13.712;2022-12-31T09:09:38;1.55;;;0.90;;
59830;SDS011;45711;50.108;13.712;2022-12-31T09:12:20;2.60;;;1.08;;
59830;SDS011;45711;50.108;13.712;2022-12-31T09:14:56;1.42;;;0.82;;
59830;SDS011;45711;50.108;13.712;2022-12-31T09:17:32;3.05;;;0.90;;
59830;SDS011;45711;50.108;13.712;2022-12-31T09:20:11;2.03;;;1.33;;
59830;SDS011;45711;50.108;13.712;2022-12-31T09:22:39;7.30;;;3.97;;
59830;SDS011;45711;50.108;13.712;2022-12-31T09:25:06;1.55;;;1.13;;
59830;SDS011;45711;50.108;13.712;2022-12-31T09:27:37;2.13;;;1.30;;
59830;SDS011;45711;50.108;13.712;2022-12-31T09:30:09;1.83;;;0.80;;
59830;SDS011;45711;50.108;13.712;2022-12-31T09:32:41;1.63;;;0.93;;
59830;SDS011;45711;50.108;13.712;2022-12-31T09:35:16;1.00;;;0.85;;
59830;SDS011;45711;50.108;13.712;2022-12-31T09:37:50;1.83;;;1.35;;
59830;SDS011;45711;50.108;13.712;2022-12-31T09:46:32;1.63;;;1.23;;
59830;SDS011;45711;50.108;13.712;2022-12-31T09:52:18;3.08;;;1.00;;
59830;SDS011;45711;50.108;13.712;2022-12-31T09:54:51;1.33;;;0.90;;
59830;SDS011;45711;50.108;13.712;2022-12-31T09:57:20;2.45;;;0.60;;
59830;SDS011;45711;50.108;13.712;2022-12-31T09:59:54;1.52;;;1.10;;
59830;SDS011;45711;50.108;13.712;2022-12-31T10:02:32;2.85;;;1.20;;
59830;SDS011;45711;50.108;13.712;2022-12-31T10:08:37;2.85;;;1.05;;
59830;SDS011;45711;50.108;13.712;2022-12-31T10:11:15;1.98;;;0.90;;
59830;SDS011;45711;50.108;13.712;2022-12-31T10:13:54;1.63;;;1.00;;
59830;SDS011;45711;50.108;13.712;2022-12-31T10:16:37;2.13;;;1.20;;
59830;SDS011;45711;50.108;13.712;2022-12-31T10:22:01;1.40;;;0.95;;
59830;SDS011;45711;50.108;13.712;2022-12-31T10:24:43;1.20;;;0.80;;
59830;SDS011;45711;50.108;13.712;2022-12-31T10:27:27;1.30;;;0.70;;
59830;SDS011;45711;50.108;13.712;2022-12-31T10:30:11;1.10;;;0.80;;
59830;SDS011;45711;50.108;13.712;2022-12-31T10:32:41;1.35;;;0.80;;
59830;SDS011;45711;50.108;13.712;2022-12-31T10:35:11;1.95;;;0.90;;
59830;SDS011;45711;50.108;13.712;2022-12-31T10:37:45;3.63;;;1.00;;
59830;SDS011;45711;50.108;13.712;2022-12-31T10:40:22;1.00;;;0.90;;
59830;SDS011;45711;50.108;13.712;2022-12-31T10:43:11;0.65;;;0.50;;
59830;SDS011;45711;50.108;13.712;2022-12-31T10:49:03;1.35;;;0.80;;
59830;SDS011;45711;50.108;13.712;2022-12-31T10:58:08;1.70;;;0.88;;
59830;SDS011;45711;50.108;13.712;2022-12-31T11:01:15;3.78;;;0.88;;
59830;SDS011;45711;50.108;13.712;2022-12-31T11:03:57;2.28;;;0.90;;
59830;SDS011;45711;50.108;13.712;2022-12-31T11:06:48;1.55;;;0.70;;
59830;SDS011;45711;50.108;13.712;2022-12-31T11:12:48;1.85;;;1.15;;
59830;SDS011;45711;50.108;13.712;2022-12-31T11:18:39;4.18;;;0.93;;
59830;SDS011;45711;50.108;13.712;2022-12-31T11:24:16;2.63;;;0.55;;
59830;SDS011;45711;50.108;13.712;2022-12-31T11:26:53;1.75;;;0.90;;
59830;SDS011;45711;50.108;13.712;2022-12-31T11:29:33;3.00;;;0.88;;
59830;SDS011;45711;50.108;13.712;2022-12-31T11:32:15;1.45;;;0.80;;
59830;SDS011;45711;50.108;13.712;2022-12-31T11:34:56;1.65;;;0.80;;
59830;SDS011;45711;50.108;13.712;2022-12-31T11:37:43;1.25;;;0.70;;
59830;SDS011;45711;50.108;13.712;2022-12-31T11:40:14;0.95;;;0.82;;
59830;SDS011;45711;50.108;13.712;2022-12-31T11:42:54;0.95;;;0.73;;
59830;SDS011;45711;50.108;13.712;2022-12-31T11:45:28;2.90;;;0.85;;
59830;SDS011;45711;50.108;13.712;2022-12-31T11:48:17;0.88;;;0.60;;
59830;SDS011;45711;50.108;13.712;2022-12-31T11:50:49;1.55;;;0.80;;
59830;SDS011;45711;50.108;13.712;2022-12-31T11:56:37;4.63;;;0.60;;
59830;SDS011;45711;50.108;13.712;2022-12-31T11:59:06;1.98;;;0.77;;
59830;SDS011;45711;50.108;13.712;2022-12-31T12:01:40;1.40;;;0.68;;
59830;SDS011;45711;50.108;13.712;2022-12-31T12:04:15;1.85;;;0.90;;
59830;SDS011;45711;50.108;13.712;2022-12-31T12:06:41;1.15;;;0.60;;
59830;SDS011;45711;50.108;13.712;2022-12-31T12:09:10;1.02;;;0.68;;
59830;SDS011;45711;50.108;13.712;2022-12-31T12:11:40;1.27;;;0.60;;
59830;SDS011;45711;50.108;13.712;2022-12-31T12:14:17;0.90;;;0.70;;
59830;SDS011;45711;50.108;13.712;2022-12-31T12:16:44;4.53;;;0.70;;
59830;SDS011;45711;50.108;13.712;2022-12-31T12:19:13;2.30;;;0.70;;
59830;SDS011;45711;50.108;13.712;2022-12-31T12:21:43;2.05;;;0.70;;
59830;SDS011;45711;50.108;13.712;2022-12-31T12:24:15;1.67;;;0.80;;
59830;SDS011;45711;50.108;13.712;2022-12-31T12:26:44;3.17;;;0.85;;
59830;SDS011;45711;50.108;13.712;2022-12-31T12:29:10;3.65;;;0.90;;
59830;SDS011;45711;50.108;13.712;2022-12-31T12:31:40;2.55;;;1.20;;
59830;SDS011;45711;50.108;13.712;2022-12-31T12:34:20;2.15;;;0.93;;
59830;SDS011;45711;50.108;13.712;2022-12-31T12:36:48;2.55;;;0.90;;
59830;SDS011;45711;50.108;13.712;2022-12-31T12:39:17;2.72;;;0.88;;
59830;SDS011;45711;50.108;13.712;2022-12-31T12:41:44;3.85;;;0.82;;
59830;SDS011;45711;50.108;13.712;2022-12-31T12:44:13;1.00;;;0.60;;
59830;SDS011;45711;50.108;13.712;2022-12-31T12:46:42;1.58;;;0.85;;
59830;SDS011;45711;50.108;13.712;2022-12-31T12:49:13;3.60;;;0.95;;
59830;SDS011;45711;50.108;13.712;2022-12-31T12:51:50;1.73;;;0.85;;
59830;SDS011;45711;50.108;13.712;2022-12-31T12:54:39;1.38;;;0.73;;
59830;SDS011;45711;50.108;13.712;2022-12-31T12:57:15;0.85;;;0.68;;
59830;SDS011;45711;50.108;13.712;2022-12-31T12:59:56;0.95;;;0.73;;
59830;SDS011;45711;50.108;13.712;2022-12-31T13:02:40;2.38;;;0.90;;
59830;SDS011;45711;50.108;13.712;2022-12-31T13:05:20;1.90;;;0.90;;
59830;SDS011;45711;50.108;13.712;2022-12-31T13:07:56;1.30;;;0.90;;
59830;SDS011;45711;50.108;13.712;2022-12-31T13:10:39;1.00;;;0.80;;
59830;SDS011;45711;50.108;13.712;2022-12-31T13:13:17;3.53;;;1.02;;
59830;SDS011;45711;50.108;13.712;2022-12-31T13:15:50;1.80;;;0.90;;
59830;SDS011;45711;50.108;13.712;2022-12-31T13:18:25;1.30;;;0.70;;
59830;SDS011;45711;50.108;13.712;2022-12-31T13:21:03;1.77;;;0.90;;
59830;SDS011;45711;50.108;13.712;2022-12-31T13:23:42;1.88;;;0.93;;
59830;SDS011;45711;50.108;13.712;2022-12-31T13:26:14;2.92;;;1.10;;
59830;SDS011;45711;50.108;13.712;2022-12-31T13:28:47;1.33;;;1.00;;
59830;SDS011;45711;50.108;13.712;2022-12-31T13:31:16;1.75;;;0.80;;
59830;SDS011;45711;50.108;13.712;2022-12-31T13:33:47;3.33;;;0.90;;
59830;SDS011;45711;50.108;13.712;2022-12-31T13:36:18;2.45;;;1.02;;
59830;SDS011;45711;50.108;13.712;2022-12-31T13:38:47;1.65;;;1.00;;
59830;SDS011;45711;50.108;13.712;2022-12-31T13:41:15;1.15;;;0.70;;
59830;SDS011;45711;50.108;13.712;2022-12-31T13:43:46;2.08;;;0.90;;
59830;SDS011;45711;50.108;13.712;2022-12-31T13:46:19;2.00;;;0.88;;
59830;SDS011;45711;50.108;13.712;2022-12-31T13:48:51;1.60;;;0.80;;
59830;SDS011;45711;50.108;13.712;2022-12-31T13:51:23;2.55;;;0.90;;
59830;SDS011;45711;50.108;13.712;2022-12-31T13:53:56;1.45;;;0.90;;
59830;SDS011;45711;50.108;13.712;2022-12-31T13:56:27;1.27;;;0.73;;
59830;SDS011;45711;50.108;13.712;2022-12-31T13:58:59;2.42;;;1.38;;
59830;SDS011;45711;50.108;13.712;2022-12-31T14:01:31;1.33;;;0.80;;
59830;SDS011;45711;50.108;13.712;2022-12-31T14:04:04;2.10;;;0.82;;
59830;SDS011;45711;50.108;13.712;2022-12-31T14:06:37;2.13;;;1.02;;
59830;SDS011;45711;50.108;13.712;2022-12-31T14:09:12;3.92;;;1.17;;
59830;SDS011;45711;50.108;13.712;2022-12-31T14:11:45;2.20;;;0.82;;
59830;SDS011;45711;50.108;13.712;2022-12-31T14:14:29;3.22;;;1.10;;
59830;SDS011;45711;50.108;13.712;2022-12-31T14:17:07;5.13;;;1.20;;
59830;SDS011;45711;50.108;13.712;2022-12-31T14:19:44;2.42;;;1.35;;
59830;SDS011;45711;50.108;13.712;2022-12-31T14:22:22;1.98;;;1.00;;
59830;SDS011;45711;50.108;13.712;2022-12-31T14:24:54;2.55;;;1.00;;
59830;SDS011;45711;50.108;13.712;2022-12-31T14:27:23;2.35;;;0.80;;
59830;SDS011;45711;50.108;13.712;2022-12-31T14:29:54;1.65;;;0.90;;
59830;SDS011;45711;50.108;13.712;2022-12-31T14:32:36;2.83;;;1.20;;
59830;SDS011;45711;50.108;13.712;2022-12-31T14:35:23;4.35;;;1.00;;
59830;SDS011;45711;50.108;13.712;2022-12-31T14:38:04;3.20;;;0.90;;
59830;SDS011;45711;50.108;13.712;2022-12-31T14:40:42;2.28;;;0.90;;
59830;SDS011;45711;50.108;13.712;2022-12-31T14:43:18;1.58;;;0.88;;
59830;SDS011;45711;50.108;13.712;2022-12-31T14:45:54;3.65;;;0.73;;
59830;SDS011;45711;50.108;13.712;2022-12-31T14:48:30;1.52;;;1.00;;
59830;SDS011;45711;50.108;13.712;2022-12-31T14:51:04;1.08;;;0.80;;
59830;SDS011;45711;50.108;13.712;2022-12-31T14:53:32;2.35;;;1.10;;
59830;SDS011;45711;50.108;13.712;2022-12-31T14:55:58;1.98;;;1.00;;
59830;SDS011;45711;50.108;13.712;2022-12-31T14:58:29;1.95;;;1.02;;
59830;SDS011;45711;50.108;13.712;2022-12-31T15:00:56;1.70;;;0.90;;
59830;SDS011;45711;50.108;13.712;2022-12-31T15:03:24;1.23;;;0.85;;
59830;SDS011;45711;50.108;13.712;2022-12-31T15:06:00;2.70;;;1.30;;
59830;SDS011;45711;50.108;13.712;2022-12-31T15:08:39;4.07;;;1.40;;
59830;SDS011;45711;50.108;13.712;2022-12-31T15:11:17;5.07;;;1.30;;
59830;SDS011;45711;50.108;13.712;2022-12-31T15:14:02;1.67;;;1.23;;
59830;SDS011;45711;50.108;13.712;2022-12-31T15:22:24;2.08;;;1.02;;
59830;SDS011;45711;50.108;13.712;2022-12-31T15:25:01;1.40;;;1.00;;
59830;SDS011;45711;50.108;13.712;2022-12-31T15:27:30;2.53;;;1.20;;
59830;SDS011;45711;50.108;13.712;2022-12-31T15:29:59;2.67;;;1.08;;
59830;SDS011;45711;50.108;13.712;2022-12-31T15:32:27;1.55;;;1.15;;
59830;SDS011;45711;50.108;13.712;2022-12-31T15:34:59;1.95;;;1.13;;
59830;SDS011;45711;50.108;13.712;2022-12-31T15:37:27;3.97;;;1.00;;
59830;SDS011;45711;50.108;13.712;2022-12-31T15:40:06;2.03;;;0.88;;
59830;SDS011;45711;50.108;13.712;2022-12-31T15:42:51;1.55;;;1.00;;
59830;SDS011;45711;50.108;13.712;2022-12-31T15:45:20;1.50;;;0.90;;
59830;SDS011;45711;50.108;13.712;2022-12-31T15:47:51;1.65;;;0.90;;